sensor_id;sensor_type;location;lat;lon;timestamp;P1;durP1;ratioP1;P2;durP2;ratioP2
6145;SDS011;3104;50.348;7.620;2023-05-07T00:00:16;3.90;;;2.93;;
6145;SDS011;3104;50.348;7.620;2023-05-07T00:02:43;2.50;;;2.30;;
6145;SDS011;3104;50.348;7.620;2023-05-07T00:05:10;2.57;;;2.37;;
6145;SDS011;3104;50.348;7.620;2023-05-07T00:07:35;2.80;;;2.70;;
6145;SDS011;3104;50.348;7.620;2023-05-07T00:10:01;2.73;;;2.53;;
6145;SDS011;3104;50.348;7.620;2023-05-07T00:12:28;2.47;;;2.37;;
6145;SDS011;3104;50.348;7.620;2023-05-07T00:14:56;2.70;;;2.50;;
6145;SDS011;3104;50.348;7.620;2023-05-07T00:17:22;3.33;;;3.13;;
6145;SDS011;3104;50.348;7.620;2023-05-07T00:19:48;2.47;;;2.10;;
6145;SDS011;3104;50.348;7.620;2023-05-07T00:22:14;2.43;;;2.30;;
6145;SDS011;3104;50.348;7.620;2023-05-07T00:24:39;2.03;;;1.93;;
6145;SDS011;3104;50.348;7.620;2023-05-07T00:27:05;5.00;;;2.40;;
6145;SDS011;3104;50.348;7.620;2023-05-07T00:29:30;3.10;;;2.83;;
6145;SDS011;3104;50.348;7.620;2023-05-07T00:31:56;2.83;;;2.03;;
6145;SDS011;3104;50.348;7.620;2023-05-07T00:34:21;3.00;;;2.80;;
6145;SDS011;3104;50.348;7.620;2023-05-07T00:36:47;3.80;;;2.77;;
6145;SDS011;3104;50.348;7.620;2023-05-07T00:39:13;2.90;;;2.63;;
6145;SDS011;3104;50.348;7.620;2023-05-07T00:41:39;3.63;;;3.33;;
6145;SDS011;3104;50.348;7.620;2023-05-07T00:44:04;4.30;;;3.20;;
6145;SDS011;3104;50.348;7.620;2023-05-07T00:46:31;3.33;;;3.03;;
6145;SDS011;3104;50.348;7.620;2023-05-07T00:48:58;4.77;;;3.80;;
6145;SDS011;3104;50.348;7.620;2023-05-07T00:51:25;3.20;;;3.00;;
6145;SDS011;3104;50.348;7.620;2023-05-07T00:53:52;2.80;;;2.60;;
6145;SDS011;3104;50.348;7.620;2023-05-07T00:56:19;2.87;;;2.67;;
6145;SDS011;3104;50.348;7.620;2023-05-07T00:58:48;5.90;;;4.80;;
6145;SDS011;3104;50.348;7.620;2023-05-07T01:01:14;6.00;;;5.40;;
6145;SDS011;3104;50.348;7.620;2023-05-07T01:03:43;6.97;;;5.00;;
6145;SDS011;3104;50.348;7.620;2023-05-07T01:06:08;5.97;;;5.40;;
6145;SDS011;3104;50.348;7.620;2023-05-07T01:08:37;6.20;;;5.60;;
6145;SDS011;3104;50.348;7.620;2023-05-07T01:11:04;6.10;;;4.70;;
6145;SDS011;3104;50.348;7.620;2023-05-07T01:13:31;5.23;;;4.73;;
6145;SDS011;3104;50.348;7.620;2023-05-07T01:15:58;4.50;;;4.20;;
6145;SDS011;3104;50.348;7.620;2023-05-07T01:18:23;3.87;;;3.57;;
6145;SDS011;3104;50.348;7.620;2023-05-07T01:20:51;3.70;;;3.40;;
6145;SDS011;3104;50.348;7.620;2023-05-07T01:23:17;3.90;;;3.60;;
6145;SDS011;3104;50.348;7.620;2023-05-07T01:25:43;5.73;;;4.27;;
6145;SDS011;3104;50.348;7.620;2023-05-07T01:28:15;3.63;;;3.33;;
6145;SDS011;3104;50.348;7.620;2023-05-07T01:30:41;3.90;;;3.30;;
6145;SDS011;3104;50.348;7.620;2023-05-07T01:33:11;3.60;;;3.30;;
6145;SDS011;3104;50.348;7.620;2023-05-07T01:35:41;4.80;;;3.40;;
6145;SDS011;3104;50.348;7.620;2023-05-07T01:38:08;4.60;;;3.70;;
6145;SDS011;3104;50.348;7.620;2023-05-07T01:40:34;4.60;;;3.60;;
6145;SDS011;3104;50.348;7.620;2023-05-07T01:43:01;3.13;;;2.93;;
6145;SDS011;3104;50.348;7.620;2023-05-07T01:45:27;4.13;;;3.83;;
6145;SDS011;3104;50.348;7.620;2023-05-07T01:47:53;3.73;;;3.53;;
6145;SDS011;3104;50.348;7.620;2023-05-07T01:50:20;4.07;;;3.77;;
6145;SDS011;3104;50.348;7.620;2023-05-07T01:52:47;6.80;;;3.87;;
6145;SDS011;3104;50.348;7.620;2023-05-07T01:55:14;3.87;;;3.57;;
6145;SDS011;3104;50.348;7.620;2023-05-07T01:57:39;6.20;;;2.83;;
6145;SDS011;3104;50.348;7.620;2023-05-07T02:00:06;9.90;;;3.67;;
6145;SDS011;3104;50.348;7.620;2023-05-07T02:02:33;4.77;;;3.03;;
6145;SDS011;3104;50.348;7.620;2023-05-07T02:04:59;4.00;;;3.20;;
6145;SDS011;3104;50.348;7.620;2023-05-07T02:07:26;3.50;;;3.20;;
6145;SDS011;3104;50.348;7.620;2023-05-07T02:09:52;5.20;;;3.80;;
6145;SDS011;3104;50.348;7.620;2023-05-07T02:12:17;5.73;;;5.00;;
6145;SDS011;3104;50.348;7.620;2023-05-07T02:14:43;8.33;;;5.20;;
6145;SDS011;3104;50.348;7.620;2023-05-07T02:17:08;7.80;;;7.10;;
6145;SDS011;3104;50.348;7.620;2023-05-07T02:19:34;5.97;;;5.10;;
6145;SDS011;3104;50.348;7.620;2023-05-07T02:22:00;6.37;;;5.77;;
6145;SDS011;3104;50.348;7.620;2023-05-07T02:24:25;5.90;;;5.40;;
6145;SDS011;3104;50.348;7.620;2023-05-07T02:26:51;6.03;;;5.20;;
6145;SDS011;3104;50.348;7.620;2023-05-07T02:29:16;5.60;;;5.00;;
6145;SDS011;3104;50.348;7.620;2023-05-07T02:31:42;5.13;;;4.73;;
6145;SDS011;3104;50.348;7.620;2023-05-07T02:34:07;4.93;;;4.53;;
6145;SDS011;3104;50.348;7.620;2023-05-07T02:36:33;4.80;;;4.50;;
6145;SDS011;3104;50.348;7.620;2023-05-07T02:38:58;6.20;;;5.70;;
6145;SDS011;3104;50.348;7.620;2023-05-07T02:41:24;6.30;;;5.70;;
6145;SDS011;3104;50.348;7.620;2023-05-07T02:43:50;5.17;;;4.77;;
6145;SDS011;3104;50.348;7.620;2023-05-07T02:46:15;4.30;;;3.87;;
6145;SDS011;3104;50.348;7.620;2023-05-07T02:48:41;3.10;;;2.80;;
6145;SDS011;3104;50.348;7.620;2023-05-07T02:51:06;4.00;;;3.13;;
6145;SDS011;3104;50.348;7.620;2023-05-07T02:53:32;6.23;;;4.33;;
6145;SDS011;3104;50.348;7.620;2023-05-07T02:55:59;5.27;;;3.10;;
6145;SDS011;3104;50.348;7.620;2023-05-07T02:58:26;4.03;;;3.73;;
6145;SDS011;3104;50.348;7.620;2023-05-07T03:00:52;3.10;;;2.90;;
6145;SDS011;3104;50.348;7.620;2023-05-07T03:03:19;3.73;;;3.30;;
6145;SDS011;3104;50.348;7.620;2023-05-07T03:05:45;3.20;;;3.00;;
6145;SDS011;3104;50.348;7.620;2023-05-07T03:08:11;3.93;;;3.73;;
6145;SDS011;3104;50.348;7.620;2023-05-07T03:10:36;4.10;;;2.60;;
6145;SDS011;3104;50.348;7.620;2023-05-07T03:13:02;3.07;;;2.77;;
6145;SDS011;3104;50.348;7.620;2023-05-07T03:15:28;3.03;;;2.43;;
6145;SDS011;3104;50.348;7.620;2023-05-07T03:17:54;3.37;;;3.07;;
6145;SDS011;3104;50.348;7.620;2023-05-07T03:20:19;3.03;;;2.80;;
6145;SDS011;3104;50.348;7.620;2023-05-07T03:22:45;2.93;;;2.53;;
6145;SDS011;3104;50.348;7.620;2023-05-07T03:25:11;2.83;;;2.40;;
6145;SDS011;3104;50.348;7.620;2023-05-07T03:27:37;3.27;;;2.97;;
6145;SDS011;3104;50.348;7.620;2023-05-07T03:30:03;2.53;;;2.33;;
6145;SDS011;3104;50.348;7.620;2023-05-07T03:32:29;3.00;;;2.27;;
6145;SDS011;3104;50.348;7.620;2023-05-07T03:34:55;6.67;;;6.10;;
6145;SDS011;3104;50.348;7.620;2023-05-07T03:37:20;3.63;;;3.30;;
6145;SDS011;3104;50.348;7.620;2023-05-07T03:39:46;3.67;;;3.37;;
6145;SDS011;3104;50.348;7.620;2023-05-07T03:42:12;3.50;;;3.20;;
6145;SDS011;3104;50.348;7.620;2023-05-07T03:44:38;4.67;;;3.20;;
6145;SDS011;3104;50.348;7.620;2023-05-07T03:47:03;3.47;;;3.17;;
6145;SDS011;3104;50.348;7.620;2023-05-07T03:49:29;3.30;;;3.10;;
6145;SDS011;3104;50.348;7.620;2023-05-07T03:51:55;3.60;;;3.30;;
6145;SDS011;3104;50.348;7.620;2023-05-07T03:54:20;4.80;;;2.93;;
6145;SDS011;3104;50.348;7.620;2023-05-07T03:56:46;3.90;;;3.40;;
6145;SDS011;3104;50.348;7.620;2023-05-07T03:59:15;3.43;;;3.23;;
6145;SDS011;3104;50.348;7.620;2023-05-07T04:01:40;3.53;;;3.17;;
6145;SDS011;3104;50.348;7.620;2023-05-07T04:04:06;4.27;;;2.87;;
6145;SDS011;3104;50.348;7.620;2023-05-07T04:06:31;4.37;;;3.97;;
6145;SDS011;3104;50.348;7.620;2023-05-07T04:08:57;3.63;;;3.10;;
6145;SDS011;3104;50.348;7.620;2023-05-07T04:11:23;4.93;;;3.47;;
6145;SDS011;3104;50.348;7.620;2023-05-07T04:13:48;4.53;;;4.10;;
6145;SDS011;3104;50.348;7.620;2023-05-07T04:16:14;4.30;;;3.90;;
6145;SDS011;3104;50.348;7.620;2023-05-07T04:18:40;8.47;;;4.43;;
6145;SDS011;3104;50.348;7.620;2023-05-07T04:21:13;4.50;;;4.10;;
6145;SDS011;3104;50.348;7.620;2023-05-07T04:23:42;4.30;;;4.00;;
6145;SDS011;3104;50.348;7.620;2023-05-07T04:26:08;8.30;;;4.90;;
6145;SDS011;3104;50.348;7.620;2023-05-07T04:28:34;5.47;;;4.50;;
6145;SDS011;3104;50.348;7.620;2023-05-07T04:31:00;3.80;;;3.60;;
6145;SDS011;3104;50.348;7.620;2023-05-07T04:33:25;4.40;;;4.10;;
6145;SDS011;3104;50.348;7.620;2023-05-07T04:35:51;4.10;;;3.80;;
6145;SDS011;3104;50.348;7.620;2023-05-07T04:38:17;3.67;;;3.37;;
6145;SDS011;3104;50.348;7.620;2023-05-07T04:40:43;4.90;;;4.50;;
6145;SDS011;3104;50.348;7.620;2023-05-07T04:43:09;3.80;;;3.50;;
6145;SDS011;3104;50.348;7.620;2023-05-07T04:45:35;4.20;;;3.20;;
6145;SDS011;3104;50.348;7.620;2023-05-07T04:48:01;4.93;;;3.40;;
6145;SDS011;3104;50.348;7.620;2023-05-07T04:50:27;4.10;;;3.70;;
6145;SDS011;3104;50.348;7.620;2023-05-07T04:52:52;3.30;;;3.10;;
6145;SDS011;3104;50.348;7.620;2023-05-07T04:55:18;6.47;;;4.17;;
6145;SDS011;3104;50.348;7.620;2023-05-07T04:57:43;3.40;;;3.07;;
6145;SDS011;3104;50.348;7.620;2023-05-07T05:00:09;3.57;;;3.27;;
6145;SDS011;3104;50.348;7.620;2023-05-07T05:02:35;3.60;;;3.30;;
6145;SDS011;3104;50.348;7.620;2023-05-07T05:05:01;2.87;;;2.67;;
6145;SDS011;3104;50.348;7.620;2023-05-07T05:07:27;3.33;;;3.13;;
6145;SDS011;3104;50.348;7.620;2023-05-07T05:09:53;3.07;;;2.80;;
6145;SDS011;3104;50.348;7.620;2023-05-07T05:12:19;4.03;;;3.60;;
6145;SDS011;3104;50.348;7.620;2023-05-07T05:14:45;4.00;;;3.60;;
6145;SDS011;3104;50.348;7.620;2023-05-07T05:17:10;6.83;;;3.73;;
6145;SDS011;3104;50.348;7.620;2023-05-07T05:19:36;5.90;;;4.17;;
6145;SDS011;3104;50.348;7.620;2023-05-07T05:22:01;4.20;;;3.90;;
6145;SDS011;3104;50.348;7.620;2023-05-07T05:24:28;6.07;;;4.50;;
6145;SDS011;3104;50.348;7.620;2023-05-07T05:26:55;6.73;;;6.10;;
6145;SDS011;3104;50.348;7.620;2023-05-07T05:29:20;5.70;;;5.20;;
6145;SDS011;3104;50.348;7.620;2023-05-07T05:31:46;9.70;;;7.17;;
6145;SDS011;3104;50.348;7.620;2023-05-07T05:34:12;6.33;;;5.83;;
6145;SDS011;3104;50.348;7.620;2023-05-07T05:36:37;8.30;;;7.60;;
6145;SDS011;3104;50.348;7.620;2023-05-07T05:39:03;7.23;;;6.53;;
6145;SDS011;3104;50.348;7.620;2023-05-07T05:41:29;12.77;;;8.70;;
6145;SDS011;3104;50.348;7.620;2023-05-07T05:43:55;8.60;;;7.83;;
6145;SDS011;3104;50.348;7.620;2023-05-07T05:46:20;8.90;;;8.00;;
6145;SDS011;3104;50.348;7.620;2023-05-07T05:48:46;7.80;;;7.00;;
6145;SDS011;3104;50.348;7.620;2023-05-07T05:51:12;8.20;;;7.40;;
6145;SDS011;3104;50.348;7.620;2023-05-07T05:53:37;5.23;;;4.73;;
6145;SDS011;3104;50.348;7.620;2023-05-07T05:56:03;5.67;;;5.27;;
6145;SDS011;3104;50.348;7.620;2023-05-07T05:58:29;5.50;;;4.23;;
6145;SDS011;3104;50.348;7.620;2023-05-07T06:00:54;4.33;;;4.00;;
6145;SDS011;3104;50.348;7.620;2023-05-07T06:03:21;6.27;;;4.23;;
6145;SDS011;3104;50.348;7.620;2023-05-07T06:05:46;4.33;;;4.03;;
6145;SDS011;3104;50.348;7.620;2023-05-07T06:08:13;3.60;;;3.33;;
6145;SDS011;3104;50.348;7.620;2023-05-07T06:10:38;3.83;;;3.50;;
6145;SDS011;3104;50.348;7.620;2023-05-07T06:13:04;4.40;;;3.03;;
6145;SDS011;3104;50.348;7.620;2023-05-07T06:15:30;3.70;;;3.40;;
6145;SDS011;3104;50.348;7.620;2023-05-07T06:17:55;4.30;;;3.90;;
6145;SDS011;3104;50.348;7.620;2023-05-07T06:20:22;5.00;;;3.10;;
6145;SDS011;3104;50.348;7.620;2023-05-07T06:22:48;3.13;;;2.83;;
6145;SDS011;3104;50.348;7.620;2023-05-07T06:25:13;3.80;;;3.37;;
6145;SDS011;3104;50.348;7.620;2023-05-07T06:27:39;6.50;;;3.40;;
6145;SDS011;3104;50.348;7.620;2023-05-07T06:30:05;3.10;;;2.80;;
6145;SDS011;3104;50.348;7.620;2023-05-07T06:32:31;5.70;;;5.20;;
6145;SDS011;3104;50.348;7.620;2023-05-07T06:34:57;6.83;;;6.33;;
6145;SDS011;3104;50.348;7.620;2023-05-07T06:37:22;6.10;;;5.60;;
6145;SDS011;3104;50.348;7.620;2023-05-07T06:39:48;6.83;;;6.23;;
6145;SDS011;3104;50.348;7.620;2023-05-07T06:42:14;7.50;;;5.57;;
6145;SDS011;3104;50.348;7.620;2023-05-07T06:44:39;5.10;;;3.80;;
6145;SDS011;3104;50.348;7.620;2023-05-07T06:47:05;4.90;;;4.50;;
6145;SDS011;3104;50.348;7.620;2023-05-07T06:49:30;6.33;;;4.67;;
6145;SDS011;3104;50.348;7.620;2023-05-07T06:51:56;4.87;;;4.50;;
6145;SDS011;3104;50.348;7.620;2023-05-07T06:54:22;5.50;;;3.80;;
6145;SDS011;3104;50.348;7.620;2023-05-07T06:56:48;6.60;;;4.17;;
6145;SDS011;3104;50.348;7.620;2023-05-07T06:59:13;3.60;;;3.40;;
6145;SDS011;3104;50.348;7.620;2023-05-07T07:01:39;3.30;;;3.00;;
6145;SDS011;3104;50.348;7.620;2023-05-07T07:04:05;3.93;;;3.50;;
6145;SDS011;3104;50.348;7.620;2023-05-07T07:06:31;3.90;;;2.97;;
6145;SDS011;3104;50.348;7.620;2023-05-07T07:08:57;2.97;;;2.77;;
6145;SDS011;3104;50.348;7.620;2023-05-07T07:11:23;3.57;;;3.27;;
6145;SDS011;3104;50.348;7.620;2023-05-07T07:13:49;2.93;;;2.73;;
6145;SDS011;3104;50.348;7.620;2023-05-07T07:16:15;3.27;;;2.90;;
6145;SDS011;3104;50.348;7.620;2023-05-07T07:18:41;3.23;;;3.00;;
6145;SDS011;3104;50.348;7.620;2023-05-07T07:21:06;2.40;;;2.20;;
6145;SDS011;3104;50.348;7.620;2023-05-07T07:23:32;3.20;;;2.90;;
6145;SDS011;3104;50.348;7.620;2023-05-07T07:25:58;3.00;;;2.80;;
6145;SDS011;3104;50.348;7.620;2023-05-07T07:28:23;3.00;;;2.80;;
6145;SDS011;3104;50.348;7.620;2023-05-07T07:30:49;3.43;;;3.13;;
6145;SDS011;3104;50.348;7.620;2023-05-07T07:33:14;3.23;;;3.03;;
6145;SDS011;3104;50.348;7.620;2023-05-07T07:35:40;2.93;;;2.77;;
6145;SDS011;3104;50.348;7.620;2023-05-07T07:38:06;2.97;;;2.77;;
6145;SDS011;3104;50.348;7.620;2023-05-07T07:40:34;3.67;;;3.33;;
6145;SDS011;3104;50.348;7.620;2023-05-07T07:43:00;3.00;;;2.70;;
6145;SDS011;3104;50.348;7.620;2023-05-07T07:45:26;4.50;;;3.37;;
6145;SDS011;3104;50.348;7.620;2023-05-07T07:47:52;7.70;;;3.80;;
6145;SDS011;3104;50.348;7.620;2023-05-07T07:50:17;2.57;;;2.37;;
6145;SDS011;3104;50.348;7.620;2023-05-07T07:52:43;3.70;;;2.90;;
6145;SDS011;3104;50.348;7.620;2023-05-07T07:55:09;4.73;;;2.80;;
6145;SDS011;3104;50.348;7.620;2023-05-07T07:57:35;3.50;;;2.80;;
6145;SDS011;3104;50.348;7.620;2023-05-07T08:00:00;3.67;;;3.40;;
6145;SDS011;3104;50.348;7.620;2023-05-07T08:02:26;2.77;;;2.43;;
6145;SDS011;3104;50.348;7.620;2023-05-07T08:04:52;2.53;;;2.33;;
6145;SDS011;3104;50.348;7.620;2023-05-07T08:07:17;3.07;;;2.77;;
6145;SDS011;3104;50.348;7.620;2023-05-07T08:09:45;3.80;;;3.30;;
6145;SDS011;3104;50.348;7.620;2023-05-07T08:12:11;2.97;;;2.67;;
6145;SDS011;3104;50.348;7.620;2023-05-07T08:14:37;3.10;;;2.90;;
6145;SDS011;3104;50.348;7.620;2023-05-07T08:17:03;2.93;;;2.53;;
6145;SDS011;3104;50.348;7.620;2023-05-07T08:19:28;2.77;;;2.57;;
6145;SDS011;3104;50.348;7.620;2023-05-07T08:21:54;3.20;;;2.90;;
6145;SDS011;3104;50.348;7.620;2023-05-07T08:24:20;2.80;;;2.50;;
6145;SDS011;3104;50.348;7.620;2023-05-07T08:26:46;2.60;;;2.40;;
6145;SDS011;3104;50.348;7.620;2023-05-07T08:29:11;3.10;;;2.90;;
6145;SDS011;3104;50.348;7.620;2023-05-07T08:31:37;2.30;;;2.10;;
6145;SDS011;3104;50.348;7.620;2023-05-07T08:34:06;3.13;;;2.83;;
6145;SDS011;3104;50.348;7.620;2023-05-07T08:36:32;2.77;;;2.60;;
6145;SDS011;3104;50.348;7.620;2023-05-07T08:38:57;2.67;;;2.47;;
6145;SDS011;3104;50.348;7.620;2023-05-07T08:41:24;2.77;;;2.57;;
6145;SDS011;3104;50.348;7.620;2023-05-07T08:43:50;2.70;;;2.50;;
6145;SDS011;3104;50.348;7.620;2023-05-07T08:46:20;2.83;;;2.60;;
6145;SDS011;3104;50.348;7.620;2023-05-07T08:48:50;3.63;;;2.60;;
6145;SDS011;3104;50.348;7.620;2023-05-07T08:51:20;3.03;;;2.70;;
6145;SDS011;3104;50.348;7.620;2023-05-07T08:53:47;2.63;;;2.43;;
6145;SDS011;3104;50.348;7.620;2023-05-07T08:56:13;3.43;;;2.70;;
6145;SDS011;3104;50.348;7.620;2023-05-07T08:58:40;2.97;;;2.33;;
6145;SDS011;3104;50.348;7.620;2023-05-07T09:01:07;2.90;;;2.70;;
6145;SDS011;3104;50.348;7.620;2023-05-07T09:03:39;3.10;;;2.20;;
6145;SDS011;3104;50.348;7.620;2023-05-07T09:06:06;2.73;;;2.50;;
6145;SDS011;3104;50.348;7.620;2023-05-07T09:08:32;2.70;;;2.07;;
6145;SDS011;3104;50.348;7.620;2023-05-07T09:10:59;2.67;;;2.33;;
6145;SDS011;3104;50.348;7.620;2023-05-07T09:13:24;3.60;;;2.20;;
6145;SDS011;3104;50.348;7.620;2023-05-07T09:15:51;4.17;;;2.50;;
6145;SDS011;3104;50.348;7.620;2023-05-07T09:18:17;3.00;;;2.60;;
6145;SDS011;3104;50.348;7.620;2023-05-07T09:20:43;2.80;;;2.70;;
6145;SDS011;3104;50.348;7.620;2023-05-07T09:23:08;3.40;;;3.10;;
6145;SDS011;3104;50.348;7.620;2023-05-07T09:25:35;3.17;;;2.80;;
6145;SDS011;3104;50.348;7.620;2023-05-07T09:28:01;2.47;;;2.27;;
6145;SDS011;3104;50.348;7.620;2023-05-07T09:30:28;3.33;;;3.00;;
6145;SDS011;3104;50.348;7.620;2023-05-07T09:32:55;2.40;;;2.30;;
6145;SDS011;3104;50.348;7.620;2023-05-07T09:35:21;2.60;;;2.43;;
6145;SDS011;3104;50.348;7.620;2023-05-07T09:37:49;2.40;;;2.20;;
6145;SDS011;3104;50.348;7.620;2023-05-07T09:40:28;2.63;;;2.40;;
6145;SDS011;3104;50.348;7.620;2023-05-07T09:42:55;2.60;;;2.40;;
6145;SDS011;3104;50.348;7.620;2023-05-07T09:45:21;2.50;;;2.30;;
6145;SDS011;3104;50.348;7.620;2023-05-07T09:47:48;2.40;;;2.30;;
6145;SDS011;3104;50.348;7.620;2023-05-07T09:50:18;2.97;;;2.77;;
6145;SDS011;3104;50.348;7.620;2023-05-07T09:52:46;2.60;;;2.40;;
6145;SDS011;3104;50.348;7.620;2023-05-07T09:55:12;2.70;;;2.50;;
6145;SDS011;3104;50.348;7.620;2023-05-07T09:57:38;2.40;;;2.20;;
6145;SDS011;3104;50.348;7.620;2023-05-07T10:00:06;2.57;;;2.30;;
6145;SDS011;3104;50.348;7.620;2023-05-07T10:02:34;3.60;;;2.27;;
6145;SDS011;3104;50.348;7.620;2023-05-07T10:05:01;2.70;;;2.33;;
6145;SDS011;3104;50.348;7.620;2023-05-07T10:07:28;2.50;;;2.40;;
6145;SDS011;3104;50.348;7.620;2023-05-07T10:09:55;2.80;;;2.60;;
6145;SDS011;3104;50.348;7.620;2023-05-07T10:12:21;3.90;;;2.90;;
6145;SDS011;3104;50.348;7.620;2023-05-07T10:14:46;2.70;;;2.50;;
6145;SDS011;3104;50.348;7.620;2023-05-07T10:17:13;3.40;;;2.30;;
6145;SDS011;3104;50.348;7.620;2023-05-07T10:19:42;2.93;;;2.60;;
6145;SDS011;3104;50.348;7.620;2023-05-07T10:22:09;3.50;;;2.53;;
6145;SDS011;3104;50.348;7.620;2023-05-07T10:24:36;2.23;;;2.03;;
6145;SDS011;3104;50.348;7.620;2023-05-07T10:27:04;3.97;;;2.83;;
6145;SDS011;3104;50.348;7.620;2023-05-07T10:32:55;2.43;;;2.23;;
6145;SDS011;3104;50.348;7.620;2023-05-07T10:35:26;2.57;;;2.43;;
6145;SDS011;3104;50.348;7.620;2023-05-07T10:37:56;2.93;;;2.77;;
6145;SDS011;3104;50.348;7.620;2023-05-07T10:40:22;2.27;;;2.07;;
6145;SDS011;3104;50.348;7.620;2023-05-07T10:42:58;2.80;;;2.67;;
6145;SDS011;3104;50.348;7.620;2023-05-07T10:45:25;2.93;;;2.73;;
6145;SDS011;3104;50.348;7.620;2023-05-07T10:48:07;2.60;;;2.40;;
6145;SDS011;3104;50.348;7.620;2023-05-07T10:50:43;2.83;;;2.63;;
6145;SDS011;3104;50.348;7.620;2023-05-07T10:55:49;4.97;;;2.63;;
6145;SDS011;3104;50.348;7.620;2023-05-07T11:00:55;3.10;;;2.80;;
6145;SDS011;3104;50.348;7.620;2023-05-07T11:03:25;3.00;;;2.80;;
6145;SDS011;3104;50.348;7.620;2023-05-07T11:06:08;4.97;;;2.57;;
6145;SDS011;3104;50.348;7.620;2023-05-07T11:11:43;2.50;;;2.40;;
6145;SDS011;3104;50.348;7.620;2023-05-07T11:14:11;3.17;;;2.97;;
6145;SDS011;3104;50.348;7.620;2023-05-07T11:16:36;3.00;;;2.80;;
6145;SDS011;3104;50.348;7.620;2023-05-07T11:19:03;2.90;;;2.67;;
6145;SDS011;3104;50.348;7.620;2023-05-07T11:21:41;2.70;;;2.50;;
6145;SDS011;3104;50.348;7.620;2023-05-07T11:24:08;3.47;;;2.70;;
6145;SDS011;3104;50.348;7.620;2023-05-07T11:26:42;3.07;;;2.87;;
6145;SDS011;3104;50.348;7.620;2023-05-07T11:29:11;2.23;;;2.13;;
6145;SDS011;3104;50.348;7.620;2023-05-07T11:31:38;3.33;;;3.03;;
6145;SDS011;3104;50.348;7.620;2023-05-07T11:34:04;3.20;;;3.00;;
6145;SDS011;3104;50.348;7.620;2023-05-07T11:36:31;2.93;;;2.67;;
6145;SDS011;3104;50.348;7.620;2023-05-07T11:38:58;2.60;;;2.40;;
6145;SDS011;3104;50.348;7.620;2023-05-07T11:41:33;2.93;;;2.73;;
6145;SDS011;3104;50.348;7.620;2023-05-07T11:44:00;2.93;;;2.83;;
6145;SDS011;3104;50.348;7.620;2023-05-07T11:46:26;3.20;;;3.00;;
6145;SDS011;3104;50.348;7.620;2023-05-07T11:48:52;2.93;;;2.73;;
6145;SDS011;3104;50.348;7.620;2023-05-07T11:51:19;2.97;;;2.77;;
6145;SDS011;3104;50.348;7.620;2023-05-07T11:53:49;3.43;;;3.20;;
6145;SDS011;3104;50.348;7.620;2023-05-07T11:56:16;2.40;;;2.30;;
6145;SDS011;3104;50.348;7.620;2023-05-07T11:58:43;3.43;;;3.23;;
6145;SDS011;3104;50.348;7.620;2023-05-07T12:01:10;3.37;;;3.07;;
6145;SDS011;3104;50.348;7.620;2023-05-07T12:03:39;2.30;;;2.10;;
6145;SDS011;3104;50.348;7.620;2023-05-07T12:06:10;3.30;;;2.80;;
6145;SDS011;3104;50.348;7.620;2023-05-07T12:08:38;2.73;;;2.53;;
6145;SDS011;3104;50.348;7.620;2023-05-07T12:11:24;3.17;;;2.97;;
6145;SDS011;3104;50.348;7.620;2023-05-07T12:13:50;3.40;;;3.20;;
6145;SDS011;3104;50.348;7.620;2023-05-07T12:16:16;3.53;;;3.20;;
6145;SDS011;3104;50.348;7.620;2023-05-07T12:18:43;3.33;;;3.13;;
6145;SDS011;3104;50.348;7.620;2023-05-07T12:21:09;3.50;;;3.20;;
6145;SDS011;3104;50.348;7.620;2023-05-07T12:23:36;4.00;;;3.60;;
6145;SDS011;3104;50.348;7.620;2023-05-07T12:26:01;3.70;;;3.40;;
6145;SDS011;3104;50.348;7.620;2023-05-07T12:28:28;3.60;;;3.30;;
6145;SDS011;3104;50.348;7.620;2023-05-07T12:30:53;2.73;;;2.60;;
6145;SDS011;3104;50.348;7.620;2023-05-07T12:33:23;2.77;;;2.67;;
6145;SDS011;3104;50.348;7.620;2023-05-07T12:35:50;3.60;;;3.40;;
6145;SDS011;3104;50.348;7.620;2023-05-07T12:38:16;3.53;;;3.33;;
6145;SDS011;3104;50.348;7.620;2023-05-07T12:40:43;2.83;;;2.63;;
6145;SDS011;3104;50.348;7.620;2023-05-07T12:43:25;3.23;;;3.03;;
6145;SDS011;3104;50.348;7.620;2023-05-07T12:45:54;3.27;;;3.07;;
6145;SDS011;3104;50.348;7.620;2023-05-07T12:48:21;3.63;;;3.33;;
6145;SDS011;3104;50.348;7.620;2023-05-07T12:50:49;3.50;;;3.20;;
6145;SDS011;3104;50.348;7.620;2023-05-07T12:53:22;2.93;;;2.67;;
6145;SDS011;3104;50.348;7.620;2023-05-07T12:55:50;3.20;;;3.00;;
6145;SDS011;3104;50.348;7.620;2023-05-07T13:00:46;3.13;;;2.93;;
6145;SDS011;3104;50.348;7.620;2023-05-07T13:03:20;2.70;;;2.50;;
6145;SDS011;3104;50.348;7.620;2023-05-07T13:05:51;3.03;;;2.80;;
6145;SDS011;3104;50.348;7.620;2023-05-07T13:08:24;4.37;;;3.50;;
6145;SDS011;3104;50.348;7.620;2023-05-07T13:10:50;3.90;;;3.60;;
6145;SDS011;3104;50.348;7.620;2023-05-07T13:13:16;3.13;;;3.00;;
6145;SDS011;3104;50.348;7.620;2023-05-07T13:15:42;3.40;;;3.20;;
6145;SDS011;3104;50.348;7.620;2023-05-07T13:18:07;3.97;;;3.57;;
6145;SDS011;3104;50.348;7.620;2023-05-07T13:20:35;4.20;;;3.80;;
6145;SDS011;3104;50.348;7.620;2023-05-07T13:23:00;3.47;;;3.27;;
6145;SDS011;3104;50.348;7.620;2023-05-07T13:25:27;3.33;;;3.13;;
6145;SDS011;3104;50.348;7.620;2023-05-07T13:27:52;4.30;;;3.80;;
6145;SDS011;3104;50.348;7.620;2023-05-07T13:30:18;3.30;;;3.10;;
6145;SDS011;3104;50.348;7.620;2023-05-07T13:32:43;3.70;;;3.50;;
6145;SDS011;3104;50.348;7.620;2023-05-07T13:35:10;3.93;;;3.63;;
6145;SDS011;3104;50.348;7.620;2023-05-07T13:37:36;4.27;;;3.57;;
6145;SDS011;3104;50.348;7.620;2023-05-07T13:40:01;3.40;;;3.13;;
6145;SDS011;3104;50.348;7.620;2023-05-07T13:42:27;4.23;;;3.53;;
6145;SDS011;3104;50.348;7.620;2023-05-07T13:44:52;3.80;;;3.60;;
6145;SDS011;3104;50.348;7.620;2023-05-07T13:47:18;3.50;;;3.30;;
6145;SDS011;3104;50.348;7.620;2023-05-07T13:49:43;4.37;;;4.10;;
6145;SDS011;3104;50.348;7.620;2023-05-07T13:52:09;3.63;;;3.40;;
6145;SDS011;3104;50.348;7.620;2023-05-07T13:54:36;3.53;;;3.27;;
6145;SDS011;3104;50.348;7.620;2023-05-07T13:57:01;3.40;;;3.10;;
6145;SDS011;3104;50.348;7.620;2023-05-07T13:59:27;3.10;;;2.90;;
6145;SDS011;3104;50.348;7.620;2023-05-07T14:01:52;6.50;;;2.53;;
6145;SDS011;3104;50.348;7.620;2023-05-07T14:04:19;2.73;;;2.57;;
6145;SDS011;3104;50.348;7.620;2023-05-07T14:06:45;3.00;;;2.80;;
6145;SDS011;3104;50.348;7.620;2023-05-07T14:09:10;3.30;;;3.10;;
6145;SDS011;3104;50.348;7.620;2023-05-07T14:11:38;3.40;;;3.20;;
6145;SDS011;3104;50.348;7.620;2023-05-07T14:14:04;3.50;;;3.30;;
6145;SDS011;3104;50.348;7.620;2023-05-07T14:16:30;3.00;;;2.90;;
6145;SDS011;3104;50.348;7.620;2023-05-07T14:18:56;4.60;;;3.80;;
6145;SDS011;3104;50.348;7.620;2023-05-07T14:21:21;3.70;;;3.40;;
6145;SDS011;3104;50.348;7.620;2023-05-07T14:23:47;3.43;;;3.23;;
6145;SDS011;3104;50.348;7.620;2023-05-07T14:26:13;3.60;;;3.40;;
6145;SDS011;3104;50.348;7.620;2023-05-07T14:28:38;4.20;;;3.80;;
6145;SDS011;3104;50.348;7.620;2023-05-07T14:31:07;3.50;;;3.30;;
6145;SDS011;3104;50.348;7.620;2023-05-07T14:33:32;3.17;;;2.97;;
6145;SDS011;3104;50.348;7.620;2023-05-07T14:35:58;3.13;;;2.83;;
6145;SDS011;3104;50.348;7.620;2023-05-07T14:38:24;3.30;;;3.10;;
6145;SDS011;3104;50.348;7.620;2023-05-07T14:40:50;2.77;;;2.57;;
6145;SDS011;3104;50.348;7.620;2023-05-07T14:43:15;2.33;;;2.23;;
6145;SDS011;3104;50.348;7.620;2023-05-07T14:45:41;2.90;;;2.63;;
6145;SDS011;3104;50.348;7.620;2023-05-07T14:48:06;4.17;;;2.60;;
6145;SDS011;3104;50.348;7.620;2023-05-07T14:50:34;2.40;;;2.30;;
6145;SDS011;3104;50.348;7.620;2023-05-07T14:52:59;2.73;;;2.53;;
6145;SDS011;3104;50.348;7.620;2023-05-07T14:55:25;2.87;;;2.67;;
6145;SDS011;3104;50.348;7.620;2023-05-07T14:57:50;2.93;;;2.73;;
6145;SDS011;3104;50.348;7.620;2023-05-07T15:00:16;2.80;;;2.60;;
6145;SDS011;3104;50.348;7.620;2023-05-07T15:02:42;3.90;;;3.20;;
6145;SDS011;3104;50.348;7.620;2023-05-07T15:05:07;4.33;;;2.90;;
6145;SDS011;3104;50.348;7.620;2023-05-07T15:07:33;3.17;;;3.00;;
6145;SDS011;3104;50.348;7.620;2023-05-07T15:09:59;2.67;;;2.53;;
6145;SDS011;3104;50.348;7.620;2023-05-07T15:12:25;2.60;;;2.40;;
6145;SDS011;3104;50.348;7.620;2023-05-07T15:14:50;2.40;;;2.20;;
6145;SDS011;3104;50.348;7.620;2023-05-07T15:17:16;2.63;;;2.53;;
6145;SDS011;3104;50.348;7.620;2023-05-07T15:19:41;2.70;;;2.50;;
6145;SDS011;3104;50.348;7.620;2023-05-07T15:22:07;2.63;;;2.47;;
6145;SDS011;3104;50.348;7.620;2023-05-07T15:24:32;2.40;;;2.30;;